createdAt,value
2022-08-02T00:00:14.144Z,98540.58
2022-08-02T00:02:42.200Z,98538.85
2022-08-02T00:05:09.758Z,98538.13
2022-08-02T00:07:41.003Z,98531.94
2022-08-02T00:10:11.178Z,98532.05
2022-08-02T00:12:39.265Z,98532.46
2022-08-02T00:15:08.169Z,98527.37
2022-08-02T00:17:35.107Z,98526.63
2022-08-02T00:20:02.551Z,98530.58
2022-08-02T00:22:29.412Z,98535.16
2022-08-02T00:24:56.295Z,98533.05
2022-08-02T00:27:23.129Z,98536.73
2022-08-02T00:29:52.743Z,98536.17
2022-08-02T00:32:22.544Z,98538.22
2022-08-02T00:34:50.442Z,98539.40
2022-08-02T00:37:17.357Z,98548.27
2022-08-02T00:39:44.858Z,98555.91
2022-08-02T00:42:15.214Z,98555.25
2022-08-02T00:44:42.971Z,98554.06
2022-08-02T00:47:10.144Z,98556.11
2022-08-02T00:49:37.699Z,98557.51
2022-08-02T00:52:05.244Z,98558.45
2022-08-02T00:54:32.204Z,98558.40
2022-08-02T00:56:59.100Z,98554.98
2022-08-02T00:59:26.004Z,98560.88
2022-08-02T01:01:55.611Z,98562.90
2022-08-02T01:04:26.895Z,98563.60
2022-08-02T01:06:59.567Z,98559.48
2022-08-02T01:09:26.906Z,98562.84
2022-08-02T01:11:54.042Z,98564.83
2022-08-02T01:14:24.619Z,98556.71
2022-08-02T01:17:05.833Z,98570.34
2022-08-02T01:20:04.201Z,98574.20
2022-08-02T01:23:00.951Z,98578.45
2022-08-02T01:25:53.708Z,98583.63
2022-08-02T01:28:49.467Z,98579.27
2022-08-02T01:31:31.039Z,98575.52
2022-08-02T01:34:18.889Z,98578.82
2022-08-02T01:37:01.087Z,98578.91
2022-08-02T01:39:32.573Z,98584.30
2022-08-02T01:42:02.078Z,98583.08
2022-08-02T01:44:33.525Z,98585.77
2022-08-02T01:47:05.139Z,98587.73
2022-08-02T01:49:33.171Z,98594.34
2022-08-02T01:52:18.832Z,98595.44
2022-08-02T01:54:47.487Z,98599.69
2022-08-02T01:57:16.502Z,98593.14
2022-08-02T01:59:45.592Z,98591.57
2022-08-02T02:02:14.881Z,98589.95
2022-08-02T02:04:44.037Z,98590.03
2022-08-02T02:07:15.957Z,98582.68
2022-08-02T02:09:47.860Z,98581.88
2022-08-02T02:12:20.384Z,98584.35
2022-08-02T02:14:51.503Z,98585.34
2022-08-02T02:17:52.976Z,98587.47
2022-08-02T02:20:14.500Z,98592.83
2022-08-02T02:22:42.289Z,98591.53
2022-08-02T02:25:11.256Z,98591.66
2022-08-02T02:27:44.433Z,98592.27
2022-08-02T02:30:12.547Z,98592.02
2022-08-02T02:32:41.778Z,98592.16
2022-08-02T02:35:11.012Z,98593.98
2022-08-02T02:37:39.086Z,98597.58
2022-08-02T02:40:08.718Z,98595.92
2022-08-02T02:42:35.851Z,98599.33
2022-08-02T02:45:04.551Z,98597.44
2022-08-02T02:47:40.997Z,98602.95
2022-08-02T02:50:11.106Z,98598.89
2022-08-02T02:52:40.426Z,98600.24
2022-08-02T02:55:08.899Z,98597.36
2022-08-02T02:57:38.138Z,98601.55
2022-08-02T03:00:09.207Z,98597.02
2022-08-02T03:02:38.867Z,98599.20
2022-08-02T03:05:07.789Z,98603.29
2022-08-02T03:07:35.415Z,98601.37
2022-08-02T03:10:05.735Z,98599.94
2022-08-02T03:12:36.035Z,98600.82
2022-08-02T03:15:06.595Z,98598.94
2022-08-02T03:17:42.990Z,98595.39
2022-08-02T03:20:12.985Z,98599.94
2022-08-02T03:22:40.530Z,98595.25
2022-08-02T03:25:09.005Z,98598.31
2022-08-02T03:27:36.438Z,98599.63
2022-08-02T03:30:05.652Z,98602.23
2022-08-02T03:32:33.675Z,98601.73
2022-08-02T03:35:01.659Z,98603.74
2022-08-02T03:37:30.776Z,98606.30
2022-08-02T03:39:59.129Z,98608.83
2022-08-02T03:42:27.984Z,98613.83
2022-08-02T03:44:56.961Z,98616.55
2022-08-02T03:47:25.067Z,98619.99
2022-08-02T03:49:52.284Z,98618.92
2022-08-02T03:52:19.652Z,98622.39
2022-08-02T03:54:46.689Z,98623.45
2022-08-02T03:57:13.958Z,98624.98
2022-08-02T03:59:43.088Z,98627.33
2022-08-02T04:02:11.212Z,98628.89
2022-08-02T04:04:38.306Z,98628.81
2022-08-02T04:07:07.272Z,98631.04
2022-08-02T04:09:34.891Z,98633.23
2022-08-02T04:12:01.793Z,98637.48
2022-08-02T04:14:29.268Z,98636.56
2022-08-02T04:17:07.809Z,98639.11
2022-08-02T04:19:41.026Z,98643.64
2022-08-02T04:22:16.325Z,98640.98
2022-08-02T04:24:49.811Z,98644.77
2022-08-02T04:27:50.086Z,98650.40
2022-08-02T04:30:07.456Z,98652.28
2022-08-02T04:32:35.822Z,98661.48
2022-08-02T04:35:19.522Z,98660.60
2022-08-02T04:38:09.491Z,98665.95
2022-08-02T04:40:34.089Z,98662.06
2022-08-02T04:43:01.008Z,98664.83
2022-08-02T04:45:30.935Z,98668.69
2022-08-02T04:48:05.814Z,98672.67
2022-08-02T04:50:33.575Z,98669.27
2022-08-02T04:53:00.501Z,98667.09
2022-08-02T04:55:29.315Z,98667.69
2022-08-02T04:57:58.039Z,98670.31
2022-08-02T05:00:26.300Z,98672.38
2022-08-02T05:02:54.186Z,98669.80
2022-08-02T05:05:21.487Z,98665.82
2022-08-02T05:07:48.652Z,98668.27
2022-08-02T05:10:15.824Z,98667.80
2022-08-02T05:12:42.691Z,98673.89
2022-08-02T05:15:13.733Z,98672.10
2022-08-02T05:17:46.785Z,98674.50
2022-08-02T05:20:16.992Z,98681.23
2022-08-02T05:22:43.999Z,98674.84
2022-08-02T05:25:11.448Z,98680.73
2022-08-02T05:27:38.400Z,98684.50
2022-08-02T05:30:06.874Z,98687.02
2022-08-02T05:32:33.783Z,98687.83
2022-08-02T05:35:02.210Z,98686.96
2022-08-02T05:37:32.307Z,98684.49
2022-08-02T05:40:00.868Z,98687.63
2022-08-02T05:42:31.714Z,98689.74
2022-08-02T05:44:58.735Z,98692.59
2022-08-02T05:47:26.090Z,98699.77
2022-08-02T05:49:53.388Z,98699.62
2022-08-02T05:52:21.711Z,98697.62
2022-08-02T05:54:51.297Z,98702.14
2022-08-02T05:57:31.096Z,98704.31
2022-08-02T06:00:06.086Z,98705.83
2022-08-02T06:02:58.344Z,98705.22
2022-08-02T06:05:27.263Z,98707.72
2022-08-02T06:07:58.440Z,98713.91
2022-08-02T06:10:28.007Z,98716.50
2022-08-02T06:13:07.276Z,98718.60
2022-08-02T06:15:35.376Z,98723.13
2022-08-02T06:18:10.039Z,98727.33
2022-08-02T06:20:37.414Z,98730.62
2022-08-02T06:23:13.311Z,98734.98
2022-08-02T06:25:50.350Z,98737.86
2022-08-02T06:28:19.443Z,98742.15
2022-08-02T06:30:46.970Z,98743.20
2022-08-02T06:33:14.196Z,98746.61
2022-08-02T06:35:50.087Z,98751.42
2022-08-02T06:38:22.639Z,98753.61
2022-08-02T06:40:57.194Z,98756.88
2022-08-02T06:43:39.172Z,98757.31
2022-08-02T06:47:09.396Z,98757.41
2022-08-02T06:48:53.520Z,98758.66
2022-08-02T06:51:20.890Z,98764.52
2022-08-02T06:53:48.768Z,98762.70
2022-08-02T06:56:16.262Z,98761.73
2022-08-02T06:58:43.094Z,98763.98
2022-08-02T07:01:10.121Z,98766.17
2022-08-02T07:03:38.937Z,98767.47
2022-08-02T07:06:07.023Z,98759.93
2022-08-02T07:08:36.211Z,98759.37
2022-08-02T07:11:04.147Z,98757.55
2022-08-02T07:13:34.692Z,98755.36
2022-08-02T07:16:04.727Z,98756.78
2022-08-02T07:18:31.588Z,98756.80
2022-08-02T07:20:58.545Z,98756.59
2022-08-02T07:23:25.440Z,98760.12
2022-08-02T07:26:03.268Z,98757.71
2022-08-02T07:28:31.196Z,98759.58
2022-08-02T07:30:58.085Z,98761.56
2022-08-02T07:33:37.837Z,98764.48
2022-08-02T07:36:09.796Z,98764.90
2022-08-02T07:38:44.131Z,98764.06
2022-08-02T07:41:12.520Z,98758.91
2022-08-02T07:43:39.390Z,98756.49
2022-08-02T07:46:06.331Z,98761.20
2022-08-02T07:48:33.857Z,98760.66
2022-08-02T07:51:00.764Z,98764.39
2022-08-02T07:53:49.731Z,98764.58
2022-08-02T07:56:15.187Z,98761.07
2022-08-02T07:58:43.023Z,98765.55
2022-08-02T08:01:10.870Z,98763.25
2022-08-02T08:03:37.764Z,98763.52
2022-08-02T08:06:04.704Z,98761.15
2022-08-02T08:08:31.629Z,98762.24
2022-08-02T08:10:58.515Z,98758.89
2022-08-02T08:13:25.659Z,98756.16
2022-08-02T08:15:52.771Z,98760.79
2022-08-02T08:18:21.534Z,98767.23
2022-08-02T08:20:51.921Z,98767.17
2022-08-02T08:23:19.123Z,98765.77
2022-08-02T08:25:46.336Z,98764.42
2022-08-02T08:28:13.508Z,98770.61
2022-08-02T08:30:42.133Z,98771.15
2022-08-02T08:33:09.552Z,98769.14
2022-08-02T08:35:36.812Z,98771.20
2022-08-02T08:38:07.455Z,98768.32
2022-08-02T08:40:35.408Z,98766.41
2022-08-02T08:43:02.355Z,98773.53
2022-08-02T08:45:29.196Z,98777.02
2022-08-02T08:48:01.872Z,98776.33
2022-08-02T08:50:34.366Z,98779.98
2022-08-02T08:53:03.923Z,98780.67
2022-08-02T08:55:32.503Z,98780.33
2022-08-02T08:58:00.985Z,98784.21
2022-08-02T09:00:29.704Z,98777.19
2022-08-02T09:02:57.523Z,98777.24
2022-08-02T09:05:25.995Z,98766.11
2022-08-02T09:07:53.499Z,98773.23
2022-08-02T09:10:36.311Z,98775.36
2022-08-02T09:13:37.983Z,98770.66
2022-08-02T09:16:11.544Z,98782.17
2022-08-02T09:18:44.351Z,98779.02
2022-08-02T09:21:11.482Z,98778.73
2022-08-02T09:23:39.796Z,98774.31
2022-08-02T09:26:10.113Z,98778.33
2022-08-02T09:28:39.654Z,98781.60
2022-08-02T09:31:13.295Z,98787.85
2022-08-02T09:33:42.343Z,98788.62
2022-08-02T09:36:12.961Z,98792.80
2022-08-02T09:38:41.307Z,98797.77
2022-08-02T09:41:21.899Z,98794.33
2022-08-02T09:44:03.131Z,98798.89
2022-08-02T09:46:38.291Z,98802.45
2022-08-02T09:49:08.458Z,98801.45
2022-08-02T09:51:39.553Z,98798.38
2022-08-02T09:54:10.136Z,98796.36
2022-08-02T09:56:54.309Z,98796.95
2022-08-02T09:59:25.149Z,98792.64
2022-08-02T10:02:01.780Z,98790.80
2022-08-02T10:04:31.720Z,98792.77
2022-08-02T10:07:00.007Z,98793.17
2022-08-02T10:09:29.279Z,98790.23
2022-08-02T10:11:57.642Z,98791.66
2022-08-02T10:14:25.947Z,98789.69
2022-08-02T10:16:54.225Z,98782.56
2022-08-02T10:19:38.841Z,98777.83
2022-08-02T10:22:13.385Z,98781.41
2022-08-02T10:24:47.575Z,98778.41
2022-08-02T10:27:20.751Z,98775.36
2022-08-02T10:29:55.284Z,98775.86
2022-08-02T10:32:37.734Z,98772.94
2022-08-02T10:35:19.547Z,98773.55
2022-08-02T10:37:56.604Z,98770.20
2022-08-02T10:40:23.957Z,98770.96
2022-08-02T10:42:54.010Z,98772.02
2022-08-02T10:45:22.906Z,98770.10
2022-08-02T10:48:03.829Z,98769.39
2022-08-02T10:50:48.104Z,98773.60
2022-08-02T10:53:27.629Z,98771.69
2022-08-02T10:55:56.714Z,98770.94
2022-08-02T10:58:29.300Z,98769.89
2022-08-02T11:00:57.915Z,98771.34
2022-08-02T11:03:28.964Z,98772.48
2022-08-02T11:06:05.537Z,98773.95
2022-08-02T11:08:32.451Z,98768.60
2022-08-02T11:11:01.529Z,98770.55
2022-08-02T11:13:30.362Z,98773.13
2022-08-02T11:16:01.612Z,98767.64
2022-08-02T11:18:44.443Z,98758.81
2022-08-02T11:21:28.529Z,98759.53
2022-08-02T11:23:56.633Z,98757.25
2022-08-02T11:26:31.585Z,98757.68
2022-08-02T11:29:00.829Z,98754.80
2022-08-02T11:31:28.520Z,98752.98
2022-08-02T11:33:56.102Z,98755.64
2022-08-02T11:36:23.127Z,98753.82
2022-08-02T11:38:49.995Z,98746.84
2022-08-02T11:41:46.068Z,98742.14
2022-08-02T11:44:09.587Z,98743.46
2022-08-02T11:46:37.480Z,98748.44
2022-08-02T11:49:14.163Z,98746.51
2022-08-02T11:51:54.102Z,98744.86
2022-08-02T11:54:26.756Z,98747.79
2022-08-02T11:56:53.751Z,98746.70
2022-08-02T11:59:20.715Z,98740.41
2022-08-02T12:01:48.330Z,98739.77
2022-08-02T12:04:19.289Z,98741.73
2022-08-02T12:06:59.113Z,98741.11
2022-08-02T12:09:28.460Z,98738.66
2022-08-02T12:11:57.141Z,98734.10
2022-08-02T12:14:26.185Z,98735.75
2022-08-02T12:17:09.165Z,98731.86
2022-08-02T12:19:37.076Z,98725.10
2022-08-02T12:22:24.452Z,98722.29
2022-08-02T12:24:57.649Z,98720.38
2022-08-02T12:27:28.773Z,98719.91
2022-08-02T12:30:02.727Z,98716.45
2022-08-02T12:32:29.762Z,98710.70
2022-08-02T12:35:04.537Z,98715.09
2022-08-02T12:37:31.791Z,98717.29
2022-08-02T12:39:58.735Z,98725.95
2022-08-02T12:42:25.689Z,98730.25
2022-08-02T12:44:57.726Z,98723.41
2022-08-02T12:47:25.197Z,98726.61
2022-08-02T12:50:34.952Z,98727.11
2022-08-02T12:53:05.651Z,98728.50
2022-08-02T12:56:00.012Z,98721.98
2022-08-02T12:58:23.525Z,98718.90
2022-08-02T13:00:54.526Z,98716.40
2022-08-02T13:04:07.768Z,98718.73
2022-08-02T13:06:32.201Z,98716.34
2022-08-02T13:08:58.704Z,98711.41
2022-08-02T13:11:26.511Z,98713.80
2022-08-02T13:13:53.512Z,98708.45
2022-08-02T13:16:31.163Z,98707.73
2022-08-02T13:18:59.482Z,98704.02
2022-08-02T13:21:41.158Z,98704.14
2022-08-02T13:24:38.083Z,98701.70
2022-08-02T13:27:07.843Z,98705.18
2022-08-02T13:29:36.428Z,98703.62
2022-08-02T13:32:03.532Z,98701.46
2022-08-02T13:34:30.433Z,98704.64
2022-08-02T13:36:57.311Z,98701.25
2022-08-02T13:39:24.232Z,98698.05
2022-08-02T13:41:51.130Z,98695.13
2022-08-02T13:44:17.997Z,98698.04
2022-08-02T13:46:46.009Z,98697.10
2022-08-02T13:49:18.949Z,98705.70
2022-08-02T13:51:46.339Z,98706.48
2022-08-02T13:54:13.185Z,98700.67
2022-08-02T13:56:40.049Z,98705.06
2022-08-02T13:59:57.559Z,98713.05
2022-08-02T14:01:56.677Z,98715.73
2022-08-02T14:04:24.536Z,98713.44
2022-08-02T14:06:51.737Z,98713.34
2022-08-02T14:09:19.142Z,98715.70
2022-08-02T14:11:46.688Z,98715.50
2022-08-02T14:14:16.468Z,98711.61
2022-08-02T14:16:45.656Z,98715.14
2022-08-02T14:19:16.135Z,98714.84
2022-08-02T14:21:46.284Z,98709.75
2022-08-02T14:24:19.176Z,98710.47
2022-08-02T14:26:47.039Z,98708.89
2022-08-02T14:29:15.782Z,98707.48
2022-08-02T14:31:44.766Z,98698.91
2022-08-02T14:34:13.810Z,98700.52
2022-08-02T14:36:41.269Z,98701.26
2022-08-02T14:39:08.654Z,98704.58
2022-08-02T14:41:58.340Z,98701.67
2022-08-02T14:44:24.322Z,98703.14
2022-08-02T14:46:51.876Z,98703.36
2022-08-02T14:49:24.768Z,98702.34
2022-08-02T14:51:53.047Z,98695.23
2022-08-02T14:54:19.861Z,98694.04
2022-08-02T14:56:48.845Z,98693.65
2022-08-02T14:59:15.757Z,98692.02
2022-08-02T15:01:42.754Z,98693.30
2022-08-02T15:04:09.718Z,98687.69
2022-08-02T15:06:36.527Z,98683.63
2022-08-02T15:09:03.706Z,98683.41
2022-08-02T15:11:30.586Z,98679.75
2022-08-02T15:14:16.217Z,98688.89
2022-08-02T15:16:56.589Z,98687.77
2022-08-02T15:19:25.788Z,98687.42
2022-08-02T15:21:59.501Z,98690.07
2022-08-02T15:24:30.084Z,98682.39
2022-08-02T15:26:57.185Z,98687.77
2022-08-02T15:29:24.029Z,98692.25
2022-08-02T15:31:50.996Z,98694.83
2022-08-02T15:34:18.698Z,98691.42
2022-08-02T15:36:45.879Z,98693.33
2022-08-02T15:39:12.926Z,98691.77
2022-08-02T15:41:39.957Z,98691.25
2022-08-02T15:44:09.325Z,98692.55
2022-08-02T15:46:38.370Z,98689.45
2022-08-02T15:49:06.784Z,98688.00
2022-08-02T15:51:33.748Z,98685.69
2022-08-02T15:54:00.647Z,98686.11
2022-08-02T15:56:27.505Z,98688.77
2022-08-02T15:58:56.018Z,98695.20
2022-08-02T16:01:37.630Z,98697.07
2022-08-02T16:04:06.981Z,98698.29
2022-08-02T16:06:35.320Z,98695.34
2022-08-02T16:09:03.716Z,98692.45
2022-08-02T16:11:31.013Z,98693.33
2022-08-02T16:13:59.242Z,98693.71
2022-08-02T16:16:29.511Z,98693.55
2022-08-02T16:18:57.004Z,98694.04
2022-08-02T16:21:25.022Z,98699.00
2022-08-02T16:24:00.937Z,98695.32
2022-08-02T16:26:31.927Z,98690.94
2022-08-02T16:29:00.271Z,98689.17
2022-08-02T16:31:27.419Z,98690.79
2022-08-02T16:33:56.421Z,98688.98
2022-08-02T16:36:25.136Z,98687.73
2022-08-02T16:38:53.228Z,98689.80
2022-08-02T16:41:21.019Z,98690.80
2022-08-02T16:43:48.080Z,98688.80
2022-08-02T16:46:15.095Z,98692.53
2022-08-02T16:48:42.286Z,98686.16
2022-08-02T16:51:19.235Z,98683.44
2022-08-02T16:54:00.537Z,98686.29
2022-08-02T16:56:29.009Z,98683.72
2022-08-02T17:02:03.230Z,98689.26
2022-08-02T17:04:30.453Z,98695.80
2022-08-02T17:07:00.144Z,98693.52
2022-08-02T17:10:02.005Z,98691.86
2022-08-02T17:12:16.239Z,98695.24
2022-08-02T17:14:55.086Z,98695.73
2022-08-02T17:17:33.487Z,98694.67
2022-08-02T17:20:02.435Z,98694.98
2022-08-02T17:22:29.328Z,98692.83
2022-08-02T17:24:56.630Z,98691.91
2022-08-02T17:27:26.762Z,98693.34
2022-08-02T17:29:53.777Z,98700.77
2022-08-02T17:32:20.708Z,98702.29
2022-08-02T17:34:48.786Z,98700.02
2022-08-02T17:37:23.726Z,98696.47
2022-08-02T17:39:51.811Z,98699.55
2022-08-02T17:42:23.757Z,98700.84
2022-08-02T17:44:53.753Z,98703.53
2022-08-02T17:47:22.377Z,98704.27
2022-08-02T17:49:52.546Z,98710.71
2022-08-02T17:55:10.813Z,98709.13
2022-08-02T17:57:56.164Z,98710.14
2022-08-02T18:00:26.789Z,98710.61
2022-08-02T18:02:55.520Z,98711.98
2022-08-02T18:05:39.089Z,98712.61
2022-08-02T18:08:08.884Z,98710.94
2022-08-02T18:10:36.025Z,98714.36
2022-08-02T18:13:05.406Z,98715.77
2022-08-02T18:15:33.320Z,98721.81
2022-08-02T18:18:00.889Z,98720.55
2022-08-02T18:20:27.819Z,98720.61
2022-08-02T18:22:58.306Z,98721.65
2022-08-02T18:25:37.342Z,98729.34
2022-08-02T18:28:11.540Z,98730.30
2022-08-02T18:33:57.053Z,98735.59
2022-08-02T18:36:25.124Z,98738.67
2022-08-02T18:39:08.401Z,98739.89
2022-08-02T18:41:38.018Z,98741.30
2022-08-02T18:44:06.066Z,98740.04
2022-08-02T18:46:33.833Z,98747.71
2022-08-02T18:49:06.760Z,98750.91
2022-08-02T18:51:41.584Z,98752.55
2022-08-02T18:54:08.487Z,98757.63
2022-08-02T18:56:35.323Z,98757.59
2022-08-02T18:59:07.511Z,98761.15
2022-08-02T19:01:39.478Z,98765.02
2022-08-02T19:04:13.597Z,98771.35
2022-08-02T19:06:40.509Z,98777.54
2022-08-02T19:09:13.099Z,98778.16
2022-08-02T19:11:54.758Z,98780.01
2022-08-02T19:14:27.358Z,98781.36
2022-08-02T19:16:58.171Z,98786.48
2022-08-02T19:19:28.741Z,98784.72
2022-08-02T19:22:18.125Z,98787.42
2022-08-02T19:24:47.697Z,98786.19
2022-08-02T19:27:15.500Z,98790.09
2022-08-02T19:29:48.971Z,98789.98
2022-08-02T19:32:41.617Z,98797.01
2022-08-02T19:35:19.910Z,98793.91
2022-08-02T19:37:59.193Z,98789.95
2022-08-02T19:40:29.039Z,98791.29
2022-08-02T19:44:26.590Z,98788.56
2022-08-02T19:45:49.788Z,98790.81
2022-08-02T19:48:21.681Z,98791.44
2022-08-02T19:50:55.809Z,98792.91
2022-08-02T19:53:28.789Z,98789.33
2022-08-02T19:56:00.833Z,98787.92
2022-08-02T20:01:21.881Z,98793.28
2022-08-02T20:03:53.089Z,98793.14
2022-08-02T20:06:29.669Z,98789.19
2022-08-02T20:09:00.932Z,98792.95
2022-08-02T20:11:34.609Z,98793.53
2022-08-02T20:14:04.567Z,98799.08
2022-08-02T20:16:34.230Z,98802.39
2022-08-02T20:19:02.451Z,98805.09
2022-08-02T20:21:35.894Z,98802.71
2022-08-02T20:24:06.272Z,98806.59
2022-08-02T20:26:35.253Z,98809.31
2022-08-02T20:29:04.231Z,98808.52
2022-08-02T20:31:31.438Z,98807.48
2022-08-02T20:33:58.474Z,98807.80
2022-08-02T20:36:27.137Z,98807.00
2022-08-02T20:38:54.934Z,98805.30
2022-08-02T20:41:23.924Z,98807.77
2022-08-02T20:44:04.396Z,98805.67
2022-08-02T20:46:43.180Z,98807.24
2022-08-02T20:49:20.069Z,98807.89
2022-08-02T20:51:53.984Z,98807.64
2022-08-02T20:54:21.568Z,98809.91
2022-08-02T20:56:50.448Z,98810.90
2022-08-02T20:59:18.099Z,98810.17
2022-08-02T21:01:57.522Z,98806.81
2022-08-02T21:04:26.418Z,98806.58
2022-08-02T21:06:54.087Z,98803.48
2022-08-02T21:09:33.012Z,98807.58
2022-08-02T21:12:12.456Z,98804.80
2022-08-02T21:14:40.272Z,98803.47
2022-08-02T21:17:10.615Z,98803.79
2022-08-02T21:19:38.206Z,98804.53
2022-08-02T21:22:11.772Z,98806.04
2022-08-02T21:24:39.134Z,98804.41
2022-08-02T21:27:06.004Z,98806.17
2022-08-02T21:29:53.125Z,98807.11
2022-08-02T21:32:21.631Z,98811.39
2022-08-02T21:34:49.552Z,98811.15
2022-08-02T21:37:16.844Z,98808.85
2022-08-02T21:39:43.909Z,98805.85
2022-08-02T21:42:22.741Z,98799.66
2022-08-02T21:44:51.249Z,98805.10
2022-08-02T21:47:25.514Z,98804.81
2022-08-02T21:50:12.906Z,98808.09
2022-08-02T21:52:42.519Z,98804.59
2022-08-02T21:55:21.271Z,98804.05
2022-08-02T21:57:51.191Z,98803.98
2022-08-02T22:00:28.197Z,98809.08
2022-08-02T22:02:55.614Z,98807.77
2022-08-02T22:05:22.482Z,98807.21
2022-08-02T22:07:50.573Z,98802.61
2022-08-02T22:10:17.649Z,98803.68
2022-08-02T22:12:44.943Z,98809.64
2022-08-02T22:15:12.503Z,98810.38
2022-08-02T22:17:51.272Z,98808.86
2022-08-02T22:20:21.453Z,98811.68
2022-08-02T22:22:50.739Z,98812.79
2022-08-02T22:25:21.678Z,98812.17
2022-08-02T22:28:38.617Z,98817.09
2022-08-02T22:30:53.521Z,98819.17
2022-08-02T22:33:37.861Z,98818.72
2022-08-02T22:36:04.984Z,98819.15
2022-08-02T22:38:31.851Z,98816.75
2022-08-02T22:40:58.784Z,98812.52
2022-08-02T22:43:25.628Z,98821.55
2022-08-02T22:46:04.651Z,98820.40
2022-08-02T22:49:02.263Z,98820.45
2022-08-02T22:51:29.905Z,98827.33
2022-08-02T22:53:57.069Z,98822.38
2022-08-02T22:56:24.533Z,98822.88
2022-08-02T22:58:49.679Z,98689.40
2022-08-02T22:58:50.793Z,98707.53
2022-08-02T22:58:54.020Z,98787.56
2022-08-02T22:58:58.994Z,98731.50
2022-08-02T23:01:38.974Z,98824.48
2022-08-02T23:04:05.833Z,98825.52
2022-08-02T23:06:33.318Z,98823.46
2022-08-02T23:09:00.144Z,98822.66
2022-08-02T23:11:27.111Z,98818.99
2022-08-02T23:13:53.960Z,98819.15
2022-08-02T23:16:52.319Z,98824.98
2022-08-02T23:19:35.055Z,98822.61
2022-08-02T23:22:03.283Z,98824.10
2022-08-02T23:24:33.755Z,98822.75
2022-08-02T23:27:01.035Z,98820.34
2022-08-02T23:29:27.940Z,98822.24
2022-08-02T23:31:54.987Z,98820.88
2022-08-02T23:34:21.811Z,98816.88
2022-08-02T23:36:48.860Z,98817.52
2022-08-02T23:39:15.832Z,98813.27
2022-08-02T23:41:42.778Z,98811.24
2022-08-02T23:44:13.910Z,98807.60
2022-08-02T23:46:46.624Z,98811.40
2022-08-02T23:49:14.103Z,98809.30
2022-08-02T23:51:41.566Z,98809.98
2022-08-02T23:54:09.051Z,98809.59
2022-08-02T23:56:37.413Z,98812.27
2022-08-02T23:59:04.578Z,98815.05
